sensor_id;sensor_type;location;lat;lon;timestamp;P1;durP1;ratioP1;P2;durP2;ratioP2
4214;SDS011;2121;48.062;7.850;2023-02-22T00:01:15;6.77;;;4.60;;
4214;SDS011;2121;48.062;7.850;2023-02-22T00:03:59;6.07;;;5.00;;
4214;SDS011;2121;48.062;7.850;2023-02-22T00:06:29;8.13;;;4.63;;
4214;SDS011;2121;48.062;7.850;2023-02-22T00:08:56;5.97;;;3.63;;
4214;SDS011;2121;48.062;7.850;2023-02-22T00:11:23;9.43;;;5.17;;
4214;SDS011;2121;48.062;7.850;2023-02-22T00:13:50;5.00;;;4.33;;
4214;SDS011;2121;48.062;7.850;2023-02-22T00:16:16;6.30;;;3.97;;
4214;SDS011;2121;48.062;7.850;2023-02-22T00:18:45;4.80;;;3.83;;
4214;SDS011;2121;48.062;7.850;2023-02-22T00:21:11;5.23;;;4.10;;
4214;SDS011;2121;48.062;7.850;2023-02-22T00:23:41;6.23;;;5.00;;
4214;SDS011;2121;48.062;7.850;2023-02-22T00:26:14;4.53;;;4.20;;
4214;SDS011;2121;48.062;7.850;2023-02-22T00:28:47;6.90;;;4.43;;
4214;SDS011;2121;48.062;7.850;2023-02-22T00:31:15;6.07;;;4.20;;
4214;SDS011;2121;48.062;7.850;2023-02-22T00:33:41;11.80;;;5.60;;
4214;SDS011;2121;48.062;7.850;2023-02-22T00:36:08;7.83;;;4.40;;
4214;SDS011;2121;48.062;7.850;2023-02-22T00:38:36;7.73;;;5.00;;
4214;SDS011;2121;48.062;7.850;2023-02-22T00:41:03;8.17;;;4.87;;
4214;SDS011;2121;48.062;7.850;2023-02-22T00:43:29;8.83;;;4.30;;
4214;SDS011;2121;48.062;7.850;2023-02-22T00:45:54;5.70;;;4.50;;
4214;SDS011;2121;48.062;7.850;2023-02-22T00:48:21;11.10;;;4.27;;
4214;SDS011;2121;48.062;7.850;2023-02-22T00:50:47;9.30;;;4.57;;
4214;SDS011;2121;48.062;7.850;2023-02-22T00:53:13;6.10;;;4.40;;
4214;SDS011;2121;48.062;7.850;2023-02-22T00:55:39;7.33;;;4.43;;
4214;SDS011;2121;48.062;7.850;2023-02-22T00:58:05;7.43;;;5.10;;
4214;SDS011;2121;48.062;7.850;2023-02-22T01:00:33;6.77;;;5.37;;
4214;SDS011;2121;48.062;7.850;2023-02-22T01:03:03;6.87;;;5.07;;
4214;SDS011;2121;48.062;7.850;2023-02-22T01:05:32;6.47;;;5.23;;
4214;SDS011;2121;48.062;7.850;2023-02-22T01:07:59;7.60;;;5.13;;
4214;SDS011;2121;48.062;7.850;2023-02-22T01:10:27;10.97;;;4.80;;
4214;SDS011;2121;48.062;7.850;2023-02-22T01:12:56;7.07;;;4.50;;
4214;SDS011;2121;48.062;7.850;2023-02-22T01:15:24;5.50;;;4.67;;
4214;SDS011;2121;48.062;7.850;2023-02-22T01:17:55;7.70;;;4.80;;
4214;SDS011;2121;48.062;7.850;2023-02-22T01:20:22;7.67;;;4.77;;
4214;SDS011;2121;48.062;7.850;2023-02-22T01:22:53;10.37;;;5.93;;
4214;SDS011;2121;48.062;7.850;2023-02-22T01:25:22;11.30;;;5.30;;
4214;SDS011;2121;48.062;7.850;2023-02-22T01:27:53;7.40;;;4.50;;
4214;SDS011;2121;48.062;7.850;2023-02-22T01:30:21;10.30;;;6.70;;
4214;SDS011;2121;48.062;7.850;2023-02-22T01:32:50;25.23;;;7.00;;
4214;SDS011;2121;48.062;7.850;2023-02-22T01:35:17;9.73;;;5.27;;
4214;SDS011;2121;48.062;7.850;2023-02-22T01:37:47;5.57;;;5.00;;
4214;SDS011;2121;48.062;7.850;2023-02-22T01:40:18;5.13;;;4.63;;
4214;SDS011;2121;48.062;7.850;2023-02-22T01:42:53;7.80;;;5.10;;
4214;SDS011;2121;48.062;7.850;2023-02-22T01:47:57;7.47;;;5.33;;
4214;SDS011;2121;48.062;7.850;2023-02-22T01:50:28;10.60;;;4.90;;
4214;SDS011;2121;48.062;7.850;2023-02-22T01:53:01;10.97;;;7.63;;
4214;SDS011;2121;48.062;7.850;2023-02-22T01:55:29;18.73;;;12.30;;
4214;SDS011;2121;48.062;7.850;2023-02-22T01:57:57;12.57;;;7.60;;
4214;SDS011;2121;48.062;7.850;2023-02-22T02:00:23;10.50;;;5.57;;
4214;SDS011;2121;48.062;7.850;2023-02-22T02:02:54;12.90;;;5.33;;
4214;SDS011;2121;48.062;7.850;2023-02-22T02:05:27;7.53;;;5.53;;
4214;SDS011;2121;48.062;7.850;2023-02-22T02:07:57;7.53;;;4.37;;
4214;SDS011;2121;48.062;7.850;2023-02-22T02:10:28;8.60;;;4.43;;
4214;SDS011;2121;48.062;7.850;2023-02-22T02:12:54;9.30;;;5.33;;
4214;SDS011;2121;48.062;7.850;2023-02-22T02:15:26;7.33;;;4.60;;
4214;SDS011;2121;48.062;7.850;2023-02-22T02:17:56;4.73;;;4.03;;
4214;SDS011;2121;48.062;7.850;2023-02-22T02:20:27;10.00;;;5.43;;
4214;SDS011;2121;48.062;7.850;2023-02-22T02:32:14;7.10;;;3.67;;
4214;SDS011;2121;48.062;7.850;2023-02-22T02:35:02;8.90;;;4.93;;
4214;SDS011;2121;48.062;7.850;2023-02-22T02:40:38;9.57;;;5.13;;
4214;SDS011;2121;48.062;7.850;2023-02-22T02:43:33;6.47;;;4.30;;
4214;SDS011;2121;48.062;7.850;2023-02-22T02:46:11;5.90;;;4.37;;
4214;SDS011;2121;48.062;7.850;2023-02-22T02:48:53;7.90;;;5.20;;
4214;SDS011;2121;48.062;7.850;2023-02-22T02:51:26;8.73;;;4.60;;
4214;SDS011;2121;48.062;7.850;2023-02-22T02:53:57;5.57;;;4.60;;
4214;SDS011;2121;48.062;7.850;2023-02-22T02:56:25;6.17;;;4.30;;
4214;SDS011;2121;48.062;7.850;2023-02-22T02:58:52;6.70;;;3.77;;
4214;SDS011;2121;48.062;7.850;2023-02-22T03:01:26;7.70;;;3.93;;
4214;SDS011;2121;48.062;7.850;2023-02-22T03:09:49;4.90;;;3.67;;
4214;SDS011;2121;48.062;7.850;2023-02-22T03:15:36;7.60;;;4.30;;
4214;SDS011;2121;48.062;7.850;2023-02-22T03:18:53;3.60;;;3.20;;
4214;SDS011;2121;48.062;7.850;2023-02-22T03:21:42;3.90;;;3.50;;
4214;SDS011;2121;48.062;7.850;2023-02-22T03:24:16;5.77;;;3.60;;
4214;SDS011;2121;48.062;7.850;2023-02-22T03:27:10;4.27;;;3.23;;
4214;SDS011;2121;48.062;7.850;2023-02-22T03:29:45;3.93;;;2.80;;
4214;SDS011;2121;48.062;7.850;2023-02-22T03:32:19;6.70;;;3.77;;
4214;SDS011;2121;48.062;7.850;2023-02-22T03:34:50;5.17;;;3.40;;
4214;SDS011;2121;48.062;7.850;2023-02-22T03:37:27;6.60;;;3.90;;
4214;SDS011;2121;48.062;7.850;2023-02-22T03:39:58;3.23;;;2.93;;
4214;SDS011;2121;48.062;7.850;2023-02-22T03:42:30;9.20;;;3.87;;
4214;SDS011;2121;48.062;7.850;2023-02-22T03:45:00;3.83;;;3.53;;
4214;SDS011;2121;48.062;7.850;2023-02-22T03:47:31;2.53;;;2.33;;
4214;SDS011;2121;48.062;7.850;2023-02-22T03:50:28;2.93;;;2.63;;
4214;SDS011;2121;48.062;7.850;2023-02-22T03:53:01;6.67;;;3.17;;
4214;SDS011;2121;48.062;7.850;2023-02-22T03:55:27;5.60;;;3.43;;
4214;SDS011;2121;48.062;7.850;2023-02-22T03:57:56;5.97;;;4.10;;
4214;SDS011;2121;48.062;7.850;2023-02-22T04:00:26;2.77;;;2.57;;
4214;SDS011;2121;48.062;7.850;2023-02-22T04:02:54;4.97;;;3.10;;
4214;SDS011;2121;48.062;7.850;2023-02-22T04:05:20;3.90;;;3.40;;
4214;SDS011;2121;48.062;7.850;2023-02-22T04:07:48;3.70;;;3.40;;
4214;SDS011;2121;48.062;7.850;2023-02-22T04:10:16;4.57;;;3.47;;
4214;SDS011;2121;48.062;7.850;2023-02-22T04:12:42;4.03;;;3.20;;
4214;SDS011;2121;48.062;7.850;2023-02-22T04:15:10;3.50;;;2.63;;
4214;SDS011;2121;48.062;7.850;2023-02-22T04:17:39;3.20;;;3.00;;
4214;SDS011;2121;48.062;7.850;2023-02-22T04:20:05;3.87;;;3.40;;
4214;SDS011;2121;48.062;7.850;2023-02-22T04:22:32;3.00;;;2.80;;
4214;SDS011;2121;48.062;7.850;2023-02-22T04:24:57;6.83;;;3.40;;
4214;SDS011;2121;48.062;7.850;2023-02-22T04:27:23;3.07;;;2.87;;
4214;SDS011;2121;48.062;7.850;2023-02-22T04:29:49;6.70;;;4.23;;
4214;SDS011;2121;48.062;7.850;2023-02-22T04:32:15;5.10;;;3.97;;
4214;SDS011;2121;48.062;7.850;2023-02-22T04:34:41;5.10;;;3.77;;
4214;SDS011;2121;48.062;7.850;2023-02-22T04:37:06;5.13;;;3.83;;
4214;SDS011;2121;48.062;7.850;2023-02-22T04:39:34;4.77;;;4.03;;
4214;SDS011;2121;48.062;7.850;2023-02-22T04:41:59;9.90;;;4.60;;
4214;SDS011;2121;48.062;7.850;2023-02-22T04:44:25;7.30;;;4.43;;
4214;SDS011;2121;48.062;7.850;2023-02-22T04:46:51;5.30;;;4.07;;
4214;SDS011;2121;48.062;7.850;2023-02-22T04:49:17;3.90;;;3.50;;
4214;SDS011;2121;48.062;7.850;2023-02-22T04:51:43;8.07;;;4.20;;
4214;SDS011;2121;48.062;7.850;2023-02-22T04:54:08;4.07;;;3.30;;
4214;SDS011;2121;48.062;7.850;2023-02-22T04:56:34;7.57;;;3.93;;
4214;SDS011;2121;48.062;7.850;2023-02-22T04:59:00;4.50;;;4.10;;
4214;SDS011;2121;48.062;7.850;2023-02-22T05:01:29;6.77;;;4.17;;
4214;SDS011;2121;48.062;7.850;2023-02-22T05:03:57;9.40;;;4.23;;
4214;SDS011;2121;48.062;7.850;2023-02-22T05:06:23;7.10;;;4.63;;
4214;SDS011;2121;48.062;7.850;2023-02-22T05:08:49;10.03;;;4.10;;
4214;SDS011;2121;48.062;7.850;2023-02-22T05:11:15;4.40;;;4.00;;
4214;SDS011;2121;48.062;7.850;2023-02-22T05:13:41;6.20;;;3.70;;
4214;SDS011;2121;48.062;7.850;2023-02-22T05:16:07;4.80;;;4.27;;
4214;SDS011;2121;48.062;7.850;2023-02-22T05:18:33;6.43;;;4.20;;
4214;SDS011;2121;48.062;7.850;2023-02-22T05:20:59;5.90;;;4.23;;
4214;SDS011;2121;48.062;7.850;2023-02-22T05:23:25;9.53;;;4.27;;
4214;SDS011;2121;48.062;7.850;2023-02-22T05:25:51;4.13;;;3.63;;
4214;SDS011;2121;48.062;7.850;2023-02-22T05:28:16;4.00;;;3.60;;
4214;SDS011;2121;48.062;7.850;2023-02-22T05:30:42;3.17;;;2.87;;
4214;SDS011;2121;48.062;7.850;2023-02-22T05:33:08;7.20;;;3.33;;
4214;SDS011;2121;48.062;7.850;2023-02-22T05:35:34;4.87;;;3.70;;
4214;SDS011;2121;48.062;7.850;2023-02-22T05:38:04;6.47;;;3.37;;
4214;SDS011;2121;48.062;7.850;2023-02-22T05:40:30;5.53;;;4.00;;
4214;SDS011;2121;48.062;7.850;2023-02-22T05:42:57;4.83;;;4.17;;
4214;SDS011;2121;48.062;7.850;2023-02-22T05:45:24;9.73;;;3.97;;
4214;SDS011;2121;48.062;7.850;2023-02-22T05:47:52;4.87;;;3.80;;
4214;SDS011;2121;48.062;7.850;2023-02-22T05:50:19;8.47;;;4.20;;
4214;SDS011;2121;48.062;7.850;2023-02-22T05:52:46;4.20;;;3.80;;
4214;SDS011;2121;48.062;7.850;2023-02-22T05:55:17;8.90;;;4.90;;
4214;SDS011;2121;48.062;7.850;2023-02-22T05:57:46;7.13;;;4.40;;
4214;SDS011;2121;48.062;7.850;2023-02-22T06:00:30;5.30;;;3.63;;
4214;SDS011;2121;48.062;7.850;2023-02-22T06:02:57;11.87;;;4.10;;
4214;SDS011;2121;48.062;7.850;2023-02-22T06:05:24;4.40;;;4.00;;
4214;SDS011;2121;48.062;7.850;2023-02-22T06:07:51;6.40;;;3.97;;
4214;SDS011;2121;48.062;7.850;2023-02-22T06:10:18;7.23;;;4.20;;
4214;SDS011;2121;48.062;7.850;2023-02-22T06:12:44;6.33;;;4.53;;
4214;SDS011;2121;48.062;7.850;2023-02-22T06:15:16;8.57;;;4.20;;
4214;SDS011;2121;48.062;7.850;2023-02-22T06:17:44;7.53;;;4.20;;
4214;SDS011;2121;48.062;7.850;2023-02-22T06:20:12;6.63;;;4.70;;
4214;SDS011;2121;48.062;7.850;2023-02-22T06:22:40;11.53;;;4.57;;
4214;SDS011;2121;48.062;7.850;2023-02-22T06:25:06;9.73;;;4.10;;
4214;SDS011;2121;48.062;7.850;2023-02-22T06:27:34;7.00;;;4.23;;
4214;SDS011;2121;48.062;7.850;2023-02-22T06:30:01;3.80;;;3.37;;
4214;SDS011;2121;48.062;7.850;2023-02-22T06:32:27;6.17;;;4.10;;
4214;SDS011;2121;48.062;7.850;2023-02-22T06:34:53;9.80;;;4.93;;
4214;SDS011;2121;48.062;7.850;2023-02-22T06:37:19;7.90;;;4.20;;
4214;SDS011;2121;48.062;7.850;2023-02-22T06:39:45;6.00;;;4.23;;
4214;SDS011;2121;48.062;7.850;2023-02-22T06:42:11;9.10;;;4.30;;
4214;SDS011;2121;48.062;7.850;2023-02-22T06:44:36;6.90;;;4.20;;
4214;SDS011;2121;48.062;7.850;2023-02-22T06:47:02;6.60;;;4.23;;
4214;SDS011;2121;48.062;7.850;2023-02-22T06:49:28;5.17;;;3.80;;
4214;SDS011;2121;48.062;7.850;2023-02-22T06:51:53;4.80;;;3.80;;
4214;SDS011;2121;48.062;7.850;2023-02-22T06:54:20;4.13;;;3.13;;
4214;SDS011;2121;48.062;7.850;2023-02-22T06:56:46;4.60;;;4.00;;
4214;SDS011;2121;48.062;7.850;2023-02-22T06:59:13;7.50;;;4.43;;
4214;SDS011;2121;48.062;7.850;2023-02-22T07:01:41;6.33;;;3.53;;
4214;SDS011;2121;48.062;7.850;2023-02-22T07:04:07;4.03;;;3.63;;
4214;SDS011;2121;48.062;7.850;2023-02-22T07:06:33;4.30;;;3.90;;
4214;SDS011;2121;48.062;7.850;2023-02-22T07:09:00;6.10;;;3.80;;
4214;SDS011;2121;48.062;7.850;2023-02-22T07:11:27;5.57;;;4.13;;
4214;SDS011;2121;48.062;7.850;2023-02-22T07:13:52;7.00;;;4.20;;
4214;SDS011;2121;48.062;7.850;2023-02-22T07:16:19;9.27;;;5.77;;
4214;SDS011;2121;48.062;7.850;2023-02-22T07:18:45;17.53;;;8.07;;
4214;SDS011;2121;48.062;7.850;2023-02-22T07:21:11;7.80;;;5.80;;
4214;SDS011;2121;48.062;7.850;2023-02-22T07:23:37;11.67;;;7.63;;
4214;SDS011;2121;48.062;7.850;2023-02-22T07:26:03;21.27;;;13.33;;
4214;SDS011;2121;48.062;7.850;2023-02-22T07:28:30;22.20;;;13.17;;
4214;SDS011;2121;48.062;7.850;2023-02-22T07:30:56;34.80;;;16.97;;
4214;SDS011;2121;48.062;7.850;2023-02-22T07:33:22;24.17;;;15.90;;
4214;SDS011;2121;48.062;7.850;2023-02-22T07:35:49;7.97;;;6.83;;
4214;SDS011;2121;48.062;7.850;2023-02-22T07:38:16;5.70;;;5.03;;
4214;SDS011;2121;48.062;7.850;2023-02-22T07:40:44;5.13;;;4.23;;
4214;SDS011;2121;48.062;7.850;2023-02-22T07:45:43;4.23;;;3.60;;
4214;SDS011;2121;48.062;7.850;2023-02-22T07:48:10;4.47;;;4.03;;
4214;SDS011;2121;48.062;7.850;2023-02-22T07:50:37;8.33;;;3.70;;
4214;SDS011;2121;48.062;7.850;2023-02-22T07:53:06;3.47;;;3.17;;
4214;SDS011;2121;48.062;7.850;2023-02-22T07:55:37;8.30;;;4.03;;
4214;SDS011;2121;48.062;7.850;2023-02-22T07:58:03;5.13;;;3.50;;
4214;SDS011;2121;48.062;7.850;2023-02-22T08:00:32;4.00;;;3.63;;
4214;SDS011;2121;48.062;7.850;2023-02-22T08:03:02;4.03;;;3.73;;
4214;SDS011;2121;48.062;7.850;2023-02-22T08:05:31;5.50;;;3.00;;
4214;SDS011;2121;48.062;7.850;2023-02-22T08:07:58;3.17;;;2.87;;
4214;SDS011;2121;48.062;7.850;2023-02-22T08:10:25;3.73;;;3.00;;
4214;SDS011;2121;48.062;7.850;2023-02-22T08:12:51;4.17;;;2.53;;
4214;SDS011;2121;48.062;7.850;2023-02-22T08:15:19;3.20;;;3.00;;
4214;SDS011;2121;48.062;7.850;2023-02-22T08:17:49;5.60;;;4.10;;
4214;SDS011;2121;48.062;7.850;2023-02-22T08:20:15;2.73;;;2.50;;
4214;SDS011;2121;48.062;7.850;2023-02-22T08:22:42;2.70;;;2.50;;
4214;SDS011;2121;48.062;7.850;2023-02-22T08:25:08;3.23;;;3.00;;
4214;SDS011;2121;48.062;7.850;2023-02-22T08:27:34;3.53;;;3.00;;
4214;SDS011;2121;48.062;7.850;2023-02-22T08:30:00;6.23;;;2.70;;
4214;SDS011;2121;48.062;7.850;2023-02-22T08:32:26;4.93;;;2.93;;
4214;SDS011;2121;48.062;7.850;2023-02-22T08:34:52;4.03;;;3.10;;
4214;SDS011;2121;48.062;7.850;2023-02-22T08:37:18;2.83;;;2.63;;
4214;SDS011;2121;48.062;7.850;2023-02-22T08:39:43;3.53;;;2.90;;
4214;SDS011;2121;48.062;7.850;2023-02-22T08:42:09;4.37;;;2.97;;
4214;SDS011;2121;48.062;7.850;2023-02-22T08:44:36;3.63;;;3.27;;
4214;SDS011;2121;48.062;7.850;2023-02-22T08:47:03;6.67;;;3.43;;
4214;SDS011;2121;48.062;7.850;2023-02-22T08:49:30;3.10;;;2.80;;
4214;SDS011;2121;48.062;7.850;2023-02-22T08:51:56;3.53;;;3.13;;
4214;SDS011;2121;48.062;7.850;2023-02-22T08:54:21;4.37;;;3.40;;
4214;SDS011;2121;48.062;7.850;2023-02-22T08:56:48;7.80;;;4.80;;
4214;SDS011;2121;48.062;7.850;2023-02-22T08:59:14;36.80;;;21.80;;
4214;SDS011;2121;48.062;7.850;2023-02-22T09:01:41;18.07;;;13.50;;
4214;SDS011;2121;48.062;7.850;2023-02-22T09:04:07;28.60;;;17.80;;
4214;SDS011;2121;48.062;7.850;2023-02-22T09:06:32;10.50;;;7.70;;
4214;SDS011;2121;48.062;7.850;2023-02-22T09:08:58;7.93;;;4.70;;
4214;SDS011;2121;48.062;7.850;2023-02-22T09:11:24;4.60;;;4.27;;
4214;SDS011;2121;48.062;7.850;2023-02-22T09:13:49;4.73;;;3.80;;
4214;SDS011;2121;48.062;7.850;2023-02-22T09:16:15;7.40;;;4.40;;
4214;SDS011;2121;48.062;7.850;2023-02-22T09:18:41;4.50;;;3.70;;
4214;SDS011;2121;48.062;7.850;2023-02-22T09:21:07;6.57;;;3.40;;
4214;SDS011;2121;48.062;7.850;2023-02-22T09:23:32;4.60;;;3.90;;
4214;SDS011;2121;48.062;7.850;2023-02-22T09:25:58;5.33;;;4.20;;
4214;SDS011;2121;48.062;7.850;2023-02-22T09:28:25;5.57;;;4.23;;
4214;SDS011;2121;48.062;7.850;2023-02-22T09:30:51;10.07;;;5.93;;
4214;SDS011;2121;48.062;7.850;2023-02-22T09:33:18;8.67;;;5.53;;
4214;SDS011;2121;48.062;7.850;2023-02-22T09:35:46;9.57;;;5.57;;
4214;SDS011;2121;48.062;7.850;2023-02-22T09:38:15;6.90;;;4.40;;
4214;SDS011;2121;48.062;7.850;2023-02-22T09:40:48;4.13;;;3.60;;
4214;SDS011;2121;48.062;7.850;2023-02-22T09:46:06;9.60;;;4.77;;
4214;SDS011;2121;48.062;7.850;2023-02-22T09:49:08;6.27;;;4.47;;
4214;SDS011;2121;48.062;7.850;2023-02-22T09:51:59;9.93;;;5.50;;
4214;SDS011;2121;48.062;7.850;2023-02-22T09:54:38;8.70;;;5.20;;
4214;SDS011;2121;48.062;7.850;2023-02-22T09:57:13;8.10;;;4.77;;
4214;SDS011;2121;48.062;7.850;2023-02-22T09:59:52;10.57;;;5.67;;
4214;SDS011;2121;48.062;7.850;2023-02-22T10:02:37;12.90;;;6.33;;
4214;SDS011;2121;48.062;7.850;2023-02-22T10:05:43;16.53;;;9.20;;
4214;SDS011;2121;48.062;7.850;2023-02-22T10:08:17;18.43;;;10.73;;
4214;SDS011;2121;48.062;7.850;2023-02-22T10:10:44;15.60;;;12.63;;
4214;SDS011;2121;48.062;7.850;2023-02-22T10:27:44;17.93;;;11.13;;
4214;SDS011;2121;48.062;7.850;2023-02-22T10:30:48;19.43;;;12.20;;
4214;SDS011;2121;48.062;7.850;2023-02-22T10:33:20;21.43;;;11.40;;
4214;SDS011;2121;48.062;7.850;2023-02-22T10:36:05;22.73;;;11.97;;
4214;SDS011;2121;48.062;7.850;2023-02-22T10:39:44;18.37;;;12.10;;
4214;SDS011;2121;48.062;7.850;2023-02-22T10:42:02;20.60;;;13.10;;
4214;SDS011;2121;48.062;7.850;2023-02-22T10:44:34;20.27;;;12.70;;
4214;SDS011;2121;48.062;7.850;2023-02-22T10:47:02;20.83;;;13.63;;
4214;SDS011;2121;48.062;7.850;2023-02-22T10:49:54;28.27;;;13.13;;
4214;SDS011;2121;48.062;7.850;2023-02-22T10:52:28;19.50;;;12.83;;
4214;SDS011;2121;48.062;7.850;2023-02-22T10:54:58;23.40;;;12.80;;
4214;SDS011;2121;48.062;7.850;2023-02-22T10:57:32;16.87;;;12.30;;
4214;SDS011;2121;48.062;7.850;2023-02-22T11:02:56;23.03;;;13.13;;
4214;SDS011;2121;48.062;7.850;2023-02-22T11:10:49;20.40;;;13.43;;
4214;SDS011;2121;48.062;7.850;2023-02-22T11:13:23;19.77;;;13.63;;
4214;SDS011;2121;48.062;7.850;2023-02-22T11:15:50;19.03;;;12.77;;
4214;SDS011;2121;48.062;7.850;2023-02-22T11:18:25;20.13;;;12.23;;
4214;SDS011;2121;48.062;7.850;2023-02-22T11:20:59;19.00;;;12.47;;
4214;SDS011;2121;48.062;7.850;2023-02-22T11:23:32;23.20;;;12.90;;
4214;SDS011;2121;48.062;7.850;2023-02-22T11:26:00;21.73;;;13.43;;
4214;SDS011;2121;48.062;7.850;2023-02-22T11:28:31;23.47;;;13.27;;
4214;SDS011;2121;48.062;7.850;2023-02-22T11:31:08;17.40;;;12.07;;
4214;SDS011;2121;48.062;7.850;2023-02-22T11:33:36;25.00;;;13.70;;
4214;SDS011;2121;48.062;7.850;2023-02-22T11:36:03;19.63;;;12.53;;
4214;SDS011;2121;48.062;7.850;2023-02-22T11:38:34;18.73;;;11.20;;
4214;SDS011;2121;48.062;7.850;2023-02-22T11:41:13;18.97;;;10.80;;
4214;SDS011;2121;48.062;7.850;2023-02-22T11:46:57;22.50;;;12.83;;
4214;SDS011;2121;48.062;7.850;2023-02-22T11:49:31;17.73;;;12.70;;
4214;SDS011;2121;48.062;7.850;2023-02-22T11:55:22;25.10;;;14.80;;
4214;SDS011;2121;48.062;7.850;2023-02-22T12:20:59;14.47;;;10.83;;
4214;SDS011;2121;48.062;7.850;2023-02-22T12:23:49;16.73;;;11.93;;
4214;SDS011;2121;48.062;7.850;2023-02-22T12:26:30;19.70;;;12.13;;
4214;SDS011;2121;48.062;7.850;2023-02-22T12:29:07;19.60;;;11.43;;
4214;SDS011;2121;48.062;7.850;2023-02-22T12:31:37;21.90;;;11.53;;
4214;SDS011;2121;48.062;7.850;2023-02-22T12:36:45;16.90;;;11.70;;
4214;SDS011;2121;48.062;7.850;2023-02-22T12:39:48;25.00;;;13.90;;
4214;SDS011;2121;48.062;7.850;2023-02-22T12:42:49;21.57;;;13.23;;
4214;SDS011;2121;48.062;7.850;2023-02-22T12:46:02;20.17;;;12.93;;
4214;SDS011;2121;48.062;7.850;2023-02-22T12:48:43;16.07;;;12.30;;
4214;SDS011;2121;48.062;7.850;2023-02-22T12:51:20;21.40;;;12.20;;
4214;SDS011;2121;48.062;7.850;2023-02-22T12:54:00;18.17;;;12.20;;
4214;SDS011;2121;48.062;7.850;2023-02-22T12:56:41;18.73;;;13.57;;
4214;SDS011;2121;48.062;7.850;2023-02-22T12:59:19;16.73;;;11.07;;
4214;SDS011;2121;48.062;7.850;2023-02-22T13:01:59;21.50;;;13.10;;
4214;SDS011;2121;48.062;7.850;2023-02-22T13:04:52;17.07;;;11.83;;
4214;SDS011;2121;48.062;7.850;2023-02-22T13:10:31;16.57;;;11.33;;
4214;SDS011;2121;48.062;7.850;2023-02-22T13:13:07;19.43;;;12.87;;
4214;SDS011;2121;48.062;7.850;2023-02-22T13:16:00;18.77;;;11.70;;
4214;SDS011;2121;48.062;7.850;2023-02-22T13:18:51;17.43;;;12.00;;
4214;SDS011;2121;48.062;7.850;2023-02-22T13:24:27;20.33;;;12.07;;
4214;SDS011;2121;48.062;7.850;2023-02-22T13:27:18;22.73;;;12.47;;
4214;SDS011;2121;48.062;7.850;2023-02-22T13:29:51;25.77;;;13.10;;
4214;SDS011;2121;48.062;7.850;2023-02-22T13:38:37;18.07;;;14.40;;
4214;SDS011;2121;48.062;7.850;2023-02-22T13:47:43;24.87;;;12.70;;
4214;SDS011;2121;48.062;7.850;2023-02-22T13:53:24;15.53;;;10.93;;
4214;SDS011;2121;48.062;7.850;2023-02-22T13:55:57;15.70;;;11.57;;
4214;SDS011;2121;48.062;7.850;2023-02-22T13:58:25;16.17;;;11.17;;
4214;SDS011;2121;48.062;7.850;2023-02-22T14:00:52;21.57;;;12.87;;
4214;SDS011;2121;48.062;7.850;2023-02-22T14:05:54;18.43;;;12.20;;
4214;SDS011;2121;48.062;7.850;2023-02-22T14:16:26;19.30;;;12.57;;
4214;SDS011;2121;48.062;7.850;2023-02-22T14:21:37;19.73;;;12.97;;
4214;SDS011;2121;48.062;7.850;2023-02-22T14:24:26;19.03;;;11.30;;
4214;SDS011;2121;48.062;7.850;2023-02-22T14:27:06;21.27;;;13.13;;
4214;SDS011;2121;48.062;7.850;2023-02-22T14:29:33;18.80;;;12.90;;
4214;SDS011;2121;48.062;7.850;2023-02-22T14:32:01;18.77;;;12.80;;
4214;SDS011;2121;48.062;7.850;2023-02-22T14:39:50;19.77;;;12.93;;
4214;SDS011;2121;48.062;7.850;2023-02-22T14:42:50;20.80;;;12.90;;
4214;SDS011;2121;48.062;7.850;2023-02-22T14:45:30;18.17;;;12.87;;
4214;SDS011;2121;48.062;7.850;2023-02-22T14:50:56;18.40;;;12.70;;
4214;SDS011;2121;48.062;7.850;2023-02-22T14:56:56;25.83;;;13.23;;
4214;SDS011;2121;48.062;7.850;2023-02-22T15:00:01;23.67;;;12.70;;
4214;SDS011;2121;48.062;7.850;2023-02-22T15:02:55;20.30;;;13.07;;
4214;SDS011;2121;48.062;7.850;2023-02-22T15:05:24;19.20;;;13.53;;
4214;SDS011;2121;48.062;7.850;2023-02-22T15:08:04;23.10;;;13.33;;
4214;SDS011;2121;48.062;7.850;2023-02-22T15:13:29;21.80;;;12.10;;
4214;SDS011;2121;48.062;7.850;2023-02-22T15:15:59;21.83;;;12.20;;
4214;SDS011;2121;48.062;7.850;2023-02-22T15:19:03;22.20;;;12.10;;
4214;SDS011;2121;48.062;7.850;2023-02-22T15:21:24;22.43;;;15.80;;
4214;SDS011;2121;48.062;7.850;2023-02-22T15:23:57;19.63;;;12.13;;
4214;SDS011;2121;48.062;7.850;2023-02-22T15:29:07;25.20;;;12.60;;
4214;SDS011;2121;48.062;7.850;2023-02-22T15:31:37;20.60;;;13.47;;
4214;SDS011;2121;48.062;7.850;2023-02-22T15:34:16;18.27;;;12.93;;
4214;SDS011;2121;48.062;7.850;2023-02-22T15:36:57;21.83;;;13.90;;
4214;SDS011;2121;48.062;7.850;2023-02-22T15:39:49;19.50;;;12.43;;
4214;SDS011;2121;48.062;7.850;2023-02-22T15:42:23;19.07;;;13.17;;
4214;SDS011;2121;48.062;7.850;2023-02-22T15:44:51;27.43;;;14.00;;
4214;SDS011;2121;48.062;7.850;2023-02-22T15:52:46;21.70;;;13.77;;
4214;SDS011;2121;48.062;7.850;2023-02-22T15:55:34;23.00;;;15.30;;
4214;SDS011;2121;48.062;7.850;2023-02-22T15:58:07;21.87;;;13.60;;
4214;SDS011;2121;48.062;7.850;2023-02-22T16:00:41;18.53;;;12.43;;
4214;SDS011;2121;48.062;7.850;2023-02-22T16:03:13;22.20;;;13.30;;
4214;SDS011;2121;48.062;7.850;2023-02-22T16:05:51;20.60;;;13.53;;
4214;SDS011;2121;48.062;7.850;2023-02-22T16:11:02;20.70;;;13.07;;
4214;SDS011;2121;48.062;7.850;2023-02-22T16:13:37;18.77;;;13.07;;
4214;SDS011;2121;48.062;7.850;2023-02-22T16:18:49;24.23;;;14.30;;
4214;SDS011;2121;48.062;7.850;2023-02-22T16:21:17;23.30;;;14.00;;
4214;SDS011;2121;48.062;7.850;2023-02-22T16:26:18;22.40;;;13.23;;
4214;SDS011;2121;48.062;7.850;2023-02-22T16:31:18;23.60;;;13.47;;
4214;SDS011;2121;48.062;7.850;2023-02-22T16:33:46;19.80;;;11.77;;
4214;SDS011;2121;48.062;7.850;2023-02-22T16:36:14;23.73;;;13.23;;
4214;SDS011;2121;48.062;7.850;2023-02-22T16:38:42;18.70;;;12.37;;
4214;SDS011;2121;48.062;7.850;2023-02-22T16:41:09;20.93;;;13.30;;
4214;SDS011;2121;48.062;7.850;2023-02-22T16:43:35;25.77;;;13.07;;
4214;SDS011;2121;48.062;7.850;2023-02-22T16:46:02;23.60;;;13.70;;
4214;SDS011;2121;48.062;7.850;2023-02-22T16:48:29;18.13;;;13.80;;
4214;SDS011;2121;48.062;7.850;2023-02-22T16:51:01;21.37;;;14.43;;
4214;SDS011;2121;48.062;7.850;2023-02-22T16:53:34;18.93;;;13.47;;
4214;SDS011;2121;48.062;7.850;2023-02-22T16:56:02;19.03;;;12.57;;
4214;SDS011;2121;48.062;7.850;2023-02-22T16:58:33;26.30;;;14.50;;
4214;SDS011;2121;48.062;7.850;2023-02-22T17:01:02;19.40;;;12.87;;
4214;SDS011;2121;48.062;7.850;2023-02-22T17:03:28;30.37;;;12.10;;
4214;SDS011;2121;48.062;7.850;2023-02-22T17:05:53;19.77;;;11.37;;
4214;SDS011;2121;48.062;7.850;2023-02-22T17:08:19;20.53;;;12.80;;
4214;SDS011;2121;48.062;7.850;2023-02-22T17:10:46;26.20;;;13.80;;
4214;SDS011;2121;48.062;7.850;2023-02-22T17:13:15;19.63;;;12.73;;
4214;SDS011;2121;48.062;7.850;2023-02-22T17:15:44;28.03;;;14.37;;
4214;SDS011;2121;48.062;7.850;2023-02-22T17:18:11;26.83;;;14.73;;
4214;SDS011;2121;48.062;7.850;2023-02-22T17:20:40;25.03;;;12.60;;
4214;SDS011;2121;48.062;7.850;2023-02-22T17:23:08;26.07;;;14.17;;
4214;SDS011;2121;48.062;7.850;2023-02-22T17:28:09;23.10;;;13.83;;
4214;SDS011;2121;48.062;7.850;2023-02-22T17:30:37;25.70;;;13.87;;
4214;SDS011;2121;48.062;7.850;2023-02-22T17:33:04;20.23;;;13.07;;
4214;SDS011;2121;48.062;7.850;2023-02-22T17:35:35;22.20;;;13.70;;
4214;SDS011;2121;48.062;7.850;2023-02-22T17:38:03;20.83;;;13.67;;
4214;SDS011;2121;48.062;7.850;2023-02-22T17:40:31;20.97;;;13.37;;
4214;SDS011;2121;48.062;7.850;2023-02-22T17:42:59;26.53;;;14.37;;
4214;SDS011;2121;48.062;7.850;2023-02-22T17:45:26;25.40;;;14.90;;
4214;SDS011;2121;48.062;7.850;2023-02-22T17:47:52;23.80;;;12.53;;
4214;SDS011;2121;48.062;7.850;2023-02-22T17:50:19;20.70;;;12.00;;
4214;SDS011;2121;48.062;7.850;2023-02-22T17:52:46;21.00;;;14.20;;
4214;SDS011;2121;48.062;7.850;2023-02-22T17:55:17;28.83;;;14.97;;
4214;SDS011;2121;48.062;7.850;2023-02-22T17:57:45;19.70;;;11.97;;
4214;SDS011;2121;48.062;7.850;2023-02-22T18:00:16;21.30;;;12.60;;
4214;SDS011;2121;48.062;7.850;2023-02-22T18:02:49;19.93;;;11.53;;